sensor_id;sensor_type;location;lat;lon;timestamp;P1;durP1;ratioP1;P2;durP2;ratioP2
787;SDS011;16074;42.708;23.312;2023-03-25T00:00:17;32.28;;;24.20;;
787;SDS011;16074;42.708;23.312;2023-03-25T00:02:49;32.20;;;22.80;;
787;SDS011;16074;42.708;23.312;2023-03-25T00:05:19;27.77;;;22.25;;
787;SDS011;16074;42.708;23.312;2023-03-25T00:07:48;41.63;;;29.75;;
787;SDS011;16074;42.708;23.312;2023-03-25T00:10:19;28.05;;;24.77;;
787;SDS011;16074;42.708;23.312;2023-03-25T00:12:47;35.20;;;25.30;;
787;SDS011;16074;42.708;23.312;2023-03-25T00:15:16;21.98;;;19.63;;
787;SDS011;16074;42.708;23.312;2023-03-25T00:17:44;21.92;;;19.70;;
787;SDS011;16074;42.708;23.312;2023-03-25T00:20:14;30.58;;;22.05;;
787;SDS011;16074;42.708;23.312;2023-03-25T00:22:42;46.47;;;26.00;;
787;SDS011;16074;42.708;23.312;2023-03-25T00:25:11;31.15;;;23.33;;
787;SDS011;16074;42.708;23.312;2023-03-25T00:27:43;25.40;;;21.45;;
787;SDS011;16074;42.708;23.312;2023-03-25T00:30:13;27.83;;;22.83;;
787;SDS011;16074;42.708;23.312;2023-03-25T00:32:43;28.10;;;21.80;;
787;SDS011;16074;42.708;23.312;2023-03-25T00:35:17;31.30;;;22.05;;
787;SDS011;16074;42.708;23.312;2023-03-25T00:37:46;26.23;;;21.50;;
787;SDS011;16074;42.708;23.312;2023-03-25T00:40:23;23.20;;;20.23;;
787;SDS011;16074;42.708;23.312;2023-03-25T00:42:52;35.58;;;23.92;;
787;SDS011;16074;42.708;23.312;2023-03-25T00:45:20;61.50;;;36.47;;
787;SDS011;16074;42.708;23.312;2023-03-25T00:47:49;48.95;;;31.15;;
787;SDS011;16074;42.708;23.312;2023-03-25T00:50:19;41.67;;;29.08;;
787;SDS011;16074;42.708;23.312;2023-03-25T00:52:48;41.08;;;26.23;;
787;SDS011;16074;42.708;23.312;2023-03-25T00:55:17;38.47;;;26.25;;
787;SDS011;16074;42.708;23.312;2023-03-25T00:57:45;35.63;;;27.38;;
787;SDS011;16074;42.708;23.312;2023-03-25T01:00:14;28.50;;;22.38;;
787;SDS011;16074;42.708;23.312;2023-03-25T01:02:45;21.27;;;19.05;;
787;SDS011;16074;42.708;23.312;2023-03-25T01:05:21;23.70;;;20.45;;
787;SDS011;16074;42.708;23.312;2023-03-25T01:07:49;24.90;;;20.20;;
787;SDS011;16074;42.708;23.312;2023-03-25T01:10:17;28.17;;;20.70;;
787;SDS011;16074;42.708;23.312;2023-03-25T01:12:46;22.65;;;18.95;;
787;SDS011;16074;42.708;23.312;2023-03-25T01:15:14;20.52;;;18.38;;
787;SDS011;16074;42.708;23.312;2023-03-25T01:17:42;24.08;;;18.80;;
787;SDS011;16074;42.708;23.312;2023-03-25T01:20:11;23.27;;;20.70;;
787;SDS011;16074;42.708;23.312;2023-03-25T01:22:40;47.15;;;31.42;;
787;SDS011;16074;42.708;23.312;2023-03-25T01:25:09;33.63;;;23.92;;
787;SDS011;16074;42.708;23.312;2023-03-25T01:27:37;25.55;;;20.35;;
787;SDS011;16074;42.708;23.312;2023-03-25T01:30:06;26.08;;;21.08;;
787;SDS011;16074;42.708;23.312;2023-03-25T01:32:35;20.55;;;18.00;;
787;SDS011;16074;42.708;23.312;2023-03-25T01:35:04;20.23;;;18.05;;
787;SDS011;16074;42.708;23.312;2023-03-25T01:37:33;23.00;;;17.42;;
787;SDS011;16074;42.708;23.312;2023-03-25T01:40:04;24.75;;;19.40;;
787;SDS011;16074;42.708;23.312;2023-03-25T01:42:35;22.50;;;19.00;;
787;SDS011;16074;42.708;23.312;2023-03-25T01:45:15;25.23;;;19.50;;
787;SDS011;16074;42.708;23.312;2023-03-25T01:47:48;23.35;;;19.85;;
787;SDS011;16074;42.708;23.312;2023-03-25T01:50:19;28.80;;;21.85;;
787;SDS011;16074;42.708;23.312;2023-03-25T01:52:49;32.63;;;22.70;;
787;SDS011;16074;42.708;23.312;2023-03-25T01:55:20;50.00;;;33.17;;
787;SDS011;16074;42.708;23.312;2023-03-25T01:57:49;35.50;;;26.70;;
787;SDS011;16074;42.708;23.312;2023-03-25T02:00:21;26.75;;;20.73;;
787;SDS011;16074;42.708;23.312;2023-03-25T02:02:53;19.63;;;15.95;;
787;SDS011;16074;42.708;23.312;2023-03-25T02:05:27;18.77;;;16.40;;
787;SDS011;16074;42.708;23.312;2023-03-25T02:08:03;16.83;;;15.02;;
787;SDS011;16074;42.708;23.312;2023-03-25T02:10:36;24.40;;;18.40;;
787;SDS011;16074;42.708;23.312;2023-03-25T02:13:04;18.88;;;16.88;;
787;SDS011;16074;42.708;23.312;2023-03-25T02:15:37;20.33;;;17.23;;
787;SDS011;16074;42.708;23.312;2023-03-25T02:18:24;20.95;;;18.70;;
787;SDS011;16074;42.708;23.312;2023-03-25T02:21:12;18.58;;;16.70;;
787;SDS011;16074;42.708;23.312;2023-03-25T02:27:23;18.10;;;16.17;;
787;SDS011;16074;42.708;23.312;2023-03-25T02:30:26;22.98;;;17.80;;
787;SDS011;16074;42.708;23.312;2023-03-25T02:36:20;22.95;;;16.98;;
787;SDS011;16074;42.708;23.312;2023-03-25T02:39:10;20.65;;;18.15;;
787;SDS011;16074;42.708;23.312;2023-03-25T02:41:43;20.42;;;16.85;;
787;SDS011;16074;42.708;23.312;2023-03-25T02:44:21;20.70;;;18.50;;
787;SDS011;16074;42.708;23.312;2023-03-25T02:46:58;22.40;;;18.08;;
787;SDS011;16074;42.708;23.312;2023-03-25T02:49:32;19.67;;;17.58;;
787;SDS011;16074;42.708;23.312;2023-03-25T02:52:05;20.75;;;18.23;;
787;SDS011;16074;42.708;23.312;2023-03-25T02:54:39;28.20;;;21.48;;
787;SDS011;16074;42.708;23.312;2023-03-25T02:57:11;32.70;;;21.55;;
787;SDS011;16074;42.708;23.312;2023-03-25T02:59:44;26.60;;;18.67;;
787;SDS011;16074;42.708;23.312;2023-03-25T03:02:14;26.40;;;21.15;;
787;SDS011;16074;42.708;23.312;2023-03-25T03:04:48;21.98;;;19.30;;
787;SDS011;16074;42.708;23.312;2023-03-25T03:07:23;25.77;;;19.80;;
787;SDS011;16074;42.708;23.312;2023-03-25T03:09:57;27.60;;;20.38;;
787;SDS011;16074;42.708;23.312;2023-03-25T03:12:40;22.52;;;19.15;;
787;SDS011;16074;42.708;23.312;2023-03-25T03:15:23;21.98;;;18.63;;
787;SDS011;16074;42.708;23.312;2023-03-25T03:18:03;23.08;;;18.13;;
787;SDS011;16074;42.708;23.312;2023-03-25T03:20:39;27.30;;;21.30;;
787;SDS011;16074;42.708;23.312;2023-03-25T03:23:18;29.30;;;22.05;;
787;SDS011;16074;42.708;23.312;2023-03-25T03:25:57;24.08;;;19.17;;
787;SDS011;16074;42.708;23.312;2023-03-25T03:28:31;27.25;;;21.50;;
787;SDS011;16074;42.708;23.312;2023-03-25T03:31:06;23.40;;;20.95;;
787;SDS011;16074;42.708;23.312;2023-03-25T03:34:03;27.40;;;21.52;;
787;SDS011;16074;42.708;23.312;2023-03-25T03:36:37;31.08;;;22.15;;
787;SDS011;16074;42.708;23.312;2023-03-25T03:39:12;26.65;;;23.33;;
787;SDS011;16074;42.708;23.312;2023-03-25T03:41:48;33.42;;;23.50;;
787;SDS011;16074;42.708;23.312;2023-03-25T03:44:21;32.85;;;25.45;;
787;SDS011;16074;42.708;23.312;2023-03-25T03:46:57;31.35;;;25.38;;
787;SDS011;16074;42.708;23.312;2023-03-25T03:49:31;25.95;;;23.40;;
787;SDS011;16074;42.708;23.312;2023-03-25T03:52:05;24.73;;;20.90;;
787;SDS011;16074;42.708;23.312;2023-03-25T03:54:37;26.67;;;23.33;;
787;SDS011;16074;42.708;23.312;2023-03-25T03:57:14;30.23;;;24.17;;
787;SDS011;16074;42.708;23.312;2023-03-25T03:59:48;28.75;;;23.30;;
787;SDS011;16074;42.708;23.312;2023-03-25T04:02:26;26.45;;;22.27;;
787;SDS011;16074;42.708;23.312;2023-03-25T04:04:58;26.02;;;21.35;;
787;SDS011;16074;42.708;23.312;2023-03-25T04:07:29;28.75;;;23.67;;
787;SDS011;16074;42.708;23.312;2023-03-25T04:10:08;26.20;;;21.67;;
787;SDS011;16074;42.708;23.312;2023-03-25T04:12:42;27.77;;;22.92;;
787;SDS011;16074;42.708;23.312;2023-03-25T04:15:13;27.48;;;22.35;;
787;SDS011;16074;42.708;23.312;2023-03-25T04:17:42;28.90;;;23.35;;
787;SDS011;16074;42.708;23.312;2023-03-25T04:20:12;29.58;;;22.45;;
787;SDS011;16074;42.708;23.312;2023-03-25T04:22:42;28.23;;;21.33;;
787;SDS011;16074;42.708;23.312;2023-03-25T04:25:12;29.60;;;23.70;;
787;SDS011;16074;42.708;23.312;2023-03-25T04:27:41;31.80;;;23.52;;
787;SDS011;16074;42.708;23.312;2023-03-25T04:30:14;28.45;;;24.13;;
787;SDS011;16074;42.708;23.312;2023-03-25T04:32:45;30.23;;;22.35;;
787;SDS011;16074;42.708;23.312;2023-03-25T04:35:14;36.58;;;25.63;;
787;SDS011;16074;42.708;23.312;2023-03-25T04:37:44;25.90;;;22.92;;
787;SDS011;16074;42.708;23.312;2023-03-25T04:40:15;24.63;;;22.00;;
787;SDS011;16074;42.708;23.312;2023-03-25T04:42:46;29.60;;;22.85;;
787;SDS011;16074;42.708;23.312;2023-03-25T04:45:14;29.60;;;22.52;;
787;SDS011;16074;42.708;23.312;2023-03-25T04:47:43;28.20;;;22.58;;
787;SDS011;16074;42.708;23.312;2023-03-25T04:50:15;26.25;;;22.17;;
787;SDS011;16074;42.708;23.312;2023-03-25T04:52:47;27.27;;;22.63;;
787;SDS011;16074;42.708;23.312;2023-03-25T04:55:16;28.50;;;23.25;;
787;SDS011;16074;42.708;23.312;2023-03-25T04:57:47;35.38;;;24.02;;
787;SDS011;16074;42.708;23.312;2023-03-25T05:00:17;33.53;;;24.77;;
787;SDS011;16074;42.708;23.312;2023-03-25T05:02:46;32.67;;;26.17;;
787;SDS011;16074;42.708;23.312;2023-03-25T05:05:16;29.25;;;25.65;;
787;SDS011;16074;42.708;23.312;2023-03-25T05:07:46;26.73;;;22.70;;
787;SDS011;16074;42.708;23.312;2023-03-25T05:10:16;31.20;;;25.02;;
787;SDS011;16074;42.708;23.312;2023-03-25T05:12:44;37.35;;;29.65;;
787;SDS011;16074;42.708;23.312;2023-03-25T05:15:15;32.33;;;28.20;;
787;SDS011;16074;42.708;23.312;2023-03-25T05:17:43;26.70;;;23.83;;
787;SDS011;16074;42.708;23.312;2023-03-25T05:20:12;28.45;;;22.58;;
787;SDS011;16074;42.708;23.312;2023-03-25T05:22:42;31.52;;;26.40;;
787;SDS011;16074;42.708;23.312;2023-03-25T05:25:11;36.88;;;29.70;;
787;SDS011;16074;42.708;23.312;2023-03-25T05:27:39;25.85;;;22.80;;
787;SDS011;16074;42.708;23.312;2023-03-25T05:30:09;26.70;;;22.60;;
787;SDS011;16074;42.708;23.312;2023-03-25T05:32:38;27.90;;;22.98;;
787;SDS011;16074;42.708;23.312;2023-03-25T05:35:08;23.90;;;20.77;;
787;SDS011;16074;42.708;23.312;2023-03-25T05:37:36;27.70;;;23.45;;
787;SDS011;16074;42.708;23.312;2023-03-25T05:40:05;31.65;;;25.33;;
787;SDS011;16074;42.708;23.312;2023-03-25T05:42:40;33.40;;;27.42;;
787;SDS011;16074;42.708;23.312;2023-03-25T05:45:16;34.25;;;25.67;;
787;SDS011;16074;42.708;23.312;2023-03-25T05:47:44;35.90;;;27.30;;
787;SDS011;16074;42.708;23.312;2023-03-25T05:50:12;30.15;;;26.33;;
787;SDS011;16074;42.708;23.312;2023-03-25T05:52:41;32.38;;;25.65;;
787;SDS011;16074;42.708;23.312;2023-03-25T05:55:10;37.28;;;27.42;;
787;SDS011;16074;42.708;23.312;2023-03-25T05:57:41;30.48;;;25.88;;
787;SDS011;16074;42.708;23.312;2023-03-25T06:00:10;33.35;;;26.60;;
787;SDS011;16074;42.708;23.312;2023-03-25T06:02:42;35.17;;;26.92;;
787;SDS011;16074;42.708;23.312;2023-03-25T06:05:11;33.22;;;29.45;;
787;SDS011;16074;42.708;23.312;2023-03-25T06:07:41;39.80;;;27.83;;
787;SDS011;16074;42.708;23.312;2023-03-25T06:10:11;34.70;;;26.75;;
787;SDS011;16074;42.708;23.312;2023-03-25T06:12:42;33.08;;;28.27;;
787;SDS011;16074;42.708;23.312;2023-03-25T06:15:13;31.90;;;26.98;;
787;SDS011;16074;42.708;23.312;2023-03-25T06:17:45;30.40;;;27.23;;
787;SDS011;16074;42.708;23.312;2023-03-25T06:20:13;35.38;;;28.75;;
787;SDS011;16074;42.708;23.312;2023-03-25T06:22:45;30.02;;;26.85;;
787;SDS011;16074;42.708;23.312;2023-03-25T06:25:13;37.95;;;31.38;;
787;SDS011;16074;42.708;23.312;2023-03-25T06:27:44;36.33;;;32.35;;
787;SDS011;16074;42.708;23.312;2023-03-25T06:30:15;32.08;;;27.48;;
787;SDS011;16074;42.708;23.312;2023-03-25T06:32:46;30.33;;;27.05;;
787;SDS011;16074;42.708;23.312;2023-03-25T06:35:16;27.98;;;25.08;;
787;SDS011;16074;42.708;23.312;2023-03-25T06:37:47;26.85;;;24.05;;
787;SDS011;16074;42.708;23.312;2023-03-25T06:40:24;32.65;;;29.15;;
787;SDS011;16074;42.708;23.312;2023-03-25T06:42:53;30.38;;;25.45;;
787;SDS011;16074;42.708;23.312;2023-03-25T06:45:40;25.83;;;22.70;;
787;SDS011;16074;42.708;23.312;2023-03-25T06:48:39;23.45;;;20.90;;
787;SDS011;16074;42.708;23.312;2023-03-25T06:51:08;26.35;;;23.55;;
787;SDS011;16074;42.708;23.312;2023-03-25T06:53:36;28.17;;;21.30;;
787;SDS011;16074;42.708;23.312;2023-03-25T06:56:05;25.58;;;21.48;;
787;SDS011;16074;42.708;23.312;2023-03-25T06:58:34;23.90;;;19.88;;
787;SDS011;16074;42.708;23.312;2023-03-25T07:01:03;25.83;;;21.08;;
787;SDS011;16074;42.708;23.312;2023-03-25T07:03:33;30.52;;;21.27;;
787;SDS011;16074;42.708;23.312;2023-03-25T07:06:04;25.23;;;20.50;;
787;SDS011;16074;42.708;23.312;2023-03-25T07:08:33;21.65;;;18.67;;
787;SDS011;16074;42.708;23.312;2023-03-25T07:11:02;23.48;;;20.10;;
787;SDS011;16074;42.708;23.312;2023-03-25T07:13:33;25.50;;;20.00;;
787;SDS011;16074;42.708;23.312;2023-03-25T07:16:01;21.77;;;19.52;;
787;SDS011;16074;42.708;23.312;2023-03-25T07:18:30;23.15;;;20.55;;
787;SDS011;16074;42.708;23.312;2023-03-25T07:20:58;23.70;;;21.05;;
787;SDS011;16074;42.708;23.312;2023-03-25T07:23:28;26.08;;;20.25;;
787;SDS011;16074;42.708;23.312;2023-03-25T07:25:57;23.57;;;21.27;;
787;SDS011;16074;42.708;23.312;2023-03-25T07:28:25;26.10;;;20.57;;
787;SDS011;16074;42.708;23.312;2023-03-25T07:30:53;28.40;;;21.93;;
787;SDS011;16074;42.708;23.312;2023-03-25T07:33:21;21.77;;;19.60;;
787;SDS011;16074;42.708;23.312;2023-03-25T07:35:50;22.40;;;20.23;;
787;SDS011;16074;42.708;23.312;2023-03-25T07:38:18;27.47;;;21.10;;
787;SDS011;16074;42.708;23.312;2023-03-25T07:40:48;22.97;;;20.53;;
787;SDS011;16074;42.708;23.312;2023-03-25T07:43:17;24.33;;;20.13;;
787;SDS011;16074;42.708;23.312;2023-03-25T07:45:53;25.20;;;22.50;;
787;SDS011;16074;42.708;23.312;2023-03-25T07:48:22;27.50;;;22.70;;
787;SDS011;16074;42.708;23.312;2023-03-25T07:50:51;26.33;;;23.63;;
787;SDS011;16074;42.708;23.312;2023-03-25T07:53:19;26.87;;;21.10;;
787;SDS011;16074;42.708;23.312;2023-03-25T07:55:49;25.90;;;23.30;;
787;SDS011;16074;42.708;23.312;2023-03-25T07:58:18;33.17;;;24.90;;
787;SDS011;16074;42.708;23.312;2023-03-25T08:00:46;30.60;;;25.80;;
787;SDS011;16074;42.708;23.312;2023-03-25T08:03:15;26.10;;;23.60;;
787;SDS011;16074;42.708;23.312;2023-03-25T08:05:44;29.87;;;24.63;;
787;SDS011;16074;42.708;23.312;2023-03-25T08:08:13;26.17;;;23.73;;
787;SDS011;16074;42.708;23.312;2023-03-25T08:10:42;30.10;;;27.00;;
787;SDS011;16074;42.708;23.312;2023-03-25T08:13:13;30.30;;;25.20;;
787;SDS011;16074;42.708;23.312;2023-03-25T08:15:41;27.00;;;24.03;;
787;SDS011;16074;42.708;23.312;2023-03-25T08:18:10;25.47;;;22.83;;
787;SDS011;16074;42.708;23.312;2023-03-25T08:20:38;27.23;;;24.57;;
787;SDS011;16074;42.708;23.312;2023-03-25T08:23:07;28.67;;;25.60;;
787;SDS011;16074;42.708;23.312;2023-03-25T08:25:36;28.53;;;25.60;;
787;SDS011;16074;42.708;23.312;2023-03-25T08:28:05;31.23;;;24.40;;
787;SDS011;16074;42.708;23.312;2023-03-25T08:30:36;25.43;;;23.07;;
787;SDS011;16074;42.708;23.312;2023-03-25T08:33:06;27.83;;;23.10;;
787;SDS011;16074;42.708;23.312;2023-03-25T08:35:36;26.07;;;23.30;;
787;SDS011;16074;42.708;23.312;2023-03-25T08:38:06;25.50;;;23.23;;
787;SDS011;16074;42.708;23.312;2023-03-25T08:40:35;27.33;;;24.60;;
787;SDS011;16074;42.708;23.312;2023-03-25T08:43:03;26.03;;;23.27;;
787;SDS011;16074;42.708;23.312;2023-03-25T08:45:32;25.20;;;22.90;;
787;SDS011;16074;42.708;23.312;2023-03-25T08:48:03;24.80;;;22.40;;
787;SDS011;16074;42.708;23.312;2023-03-25T08:50:32;25.70;;;23.10;;
787;SDS011;16074;42.708;23.312;2023-03-25T08:53:00;22.83;;;20.57;;
787;SDS011;16074;42.708;23.312;2023-03-25T08:55:29;21.80;;;19.70;;
787;SDS011;16074;42.708;23.312;2023-03-25T08:58:00;21.80;;;19.50;;
787;SDS011;16074;42.708;23.312;2023-03-25T09:00:28;20.10;;;18.40;;
787;SDS011;16074;42.708;23.312;2023-03-25T09:02:58;21.83;;;19.83;;
787;SDS011;16074;42.708;23.312;2023-03-25T09:05:28;18.77;;;17.00;;
787;SDS011;16074;42.708;23.312;2023-03-25T09:07:56;21.30;;;17.73;;
787;SDS011;16074;42.708;23.312;2023-03-25T09:10:24;25.57;;;20.77;;
787;SDS011;16074;42.708;23.312;2023-03-25T09:12:52;22.40;;;18.00;;
787;SDS011;16074;42.708;23.312;2023-03-25T09:15:21;19.20;;;16.90;;
787;SDS011;16074;42.708;23.312;2023-03-25T09:17:49;22.17;;;18.37;;
787;SDS011;16074;42.708;23.312;2023-03-25T09:20:17;18.37;;;16.57;;
787;SDS011;16074;42.708;23.312;2023-03-25T09:22:47;17.80;;;15.77;;
787;SDS011;16074;42.708;23.312;2023-03-25T09:25:15;16.03;;;14.50;;
787;SDS011;16074;42.708;23.312;2023-03-25T09:27:44;17.47;;;15.63;;
787;SDS011;16074;42.708;23.312;2023-03-25T09:30:12;17.33;;;15.80;;
787;SDS011;16074;42.708;23.312;2023-03-25T09:32:41;17.10;;;15.60;;
787;SDS011;16074;42.708;23.312;2023-03-25T09:35:10;16.13;;;14.40;;
787;SDS011;16074;42.708;23.312;2023-03-25T09:37:38;17.07;;;15.60;;
787;SDS011;16074;42.708;23.312;2023-03-25T09:40:08;15.80;;;14.13;;
787;SDS011;16074;42.708;23.312;2023-03-25T09:42:42;14.93;;;13.53;;
787;SDS011;16074;42.708;23.312;2023-03-25T09:45:22;14.40;;;13.00;;
787;SDS011;16074;42.708;23.312;2023-03-25T09:47:58;16.60;;;13.57;;
787;SDS011;16074;42.708;23.312;2023-03-25T09:50:31;11.90;;;10.80;;
787;SDS011;16074;42.708;23.312;2023-03-25T09:53:02;13.63;;;11.50;;
787;SDS011;16074;42.708;23.312;2023-03-25T09:55:37;12.17;;;10.97;;
787;SDS011;16074;42.708;23.312;2023-03-25T09:58:21;9.43;;;8.73;;
787;SDS011;16074;42.708;23.312;2023-03-25T10:00:54;9.20;;;8.30;;
787;SDS011;16074;42.708;23.312;2023-03-25T10:03:28;8.47;;;7.77;;
787;SDS011;16074;42.708;23.312;2023-03-25T10:06:11;8.23;;;7.30;;
787;SDS011;16074;42.708;23.312;2023-03-25T10:08:49;6.63;;;6.13;;
787;SDS011;16074;42.708;23.312;2023-03-25T10:11:31;6.33;;;5.80;;
787;SDS011;16074;42.708;23.312;2023-03-25T10:14:08;6.50;;;6.10;;
787;SDS011;16074;42.708;23.312;2023-03-25T10:16:43;7.20;;;6.50;;
787;SDS011;16074;42.708;23.312;2023-03-25T10:19:25;6.07;;;5.60;;
787;SDS011;16074;42.708;23.312;2023-03-25T10:22:06;6.77;;;6.30;;
787;SDS011;16074;42.708;23.312;2023-03-25T10:24:41;6.23;;;5.73;;
787;SDS011;16074;42.708;23.312;2023-03-25T10:27:16;5.97;;;5.47;;
787;SDS011;16074;42.708;23.312;2023-03-25T10:29:50;6.53;;;6.13;;
787;SDS011;16074;42.708;23.312;2023-03-25T10:32:26;7.93;;;7.10;;
787;SDS011;16074;42.708;23.312;2023-03-25T10:34:59;6.67;;;6.10;;
787;SDS011;16074;42.708;23.312;2023-03-25T10:37:32;6.90;;;6.40;;
787;SDS011;16074;42.708;23.312;2023-03-25T10:40:09;6.93;;;6.33;;
787;SDS011;16074;42.708;23.312;2023-03-25T10:42:46;6.73;;;6.00;;
787;SDS011;16074;42.708;23.312;2023-03-25T10:45:22;5.60;;;5.13;;
787;SDS011;16074;42.708;23.312;2023-03-25T10:47:53;7.30;;;5.93;;
787;SDS011;16074;42.708;23.312;2023-03-25T10:50:27;6.50;;;6.00;;
787;SDS011;16074;42.708;23.312;2023-03-25T10:52:56;7.10;;;6.57;;
787;SDS011;16074;42.708;23.312;2023-03-25T10:55:25;6.83;;;6.33;;
787;SDS011;16074;42.708;23.312;2023-03-25T10:58:01;6.63;;;6.23;;
787;SDS011;16074;42.708;23.312;2023-03-25T11:00:31;6.37;;;5.97;;
787;SDS011;16074;42.708;23.312;2023-03-25T11:02:59;7.03;;;6.53;;
787;SDS011;16074;42.708;23.312;2023-03-25T11:05:29;7.70;;;7.10;;
787;SDS011;16074;42.708;23.312;2023-03-25T11:07:58;7.27;;;6.63;;
787;SDS011;16074;42.708;23.312;2023-03-25T11:10:46;6.70;;;6.20;;
787;SDS011;16074;42.708;23.312;2023-03-25T11:13:18;7.00;;;6.50;;
787;SDS011;16074;42.708;23.312;2023-03-25T11:15:50;7.77;;;7.07;;
787;SDS011;16074;42.708;23.312;2023-03-25T11:18:23;8.20;;;6.57;;
787;SDS011;16074;42.708;23.312;2023-03-25T11:20:55;6.83;;;6.30;;
787;SDS011;16074;42.708;23.312;2023-03-25T11:23:29;8.87;;;7.20;;
787;SDS011;16074;42.708;23.312;2023-03-25T11:26:01;6.50;;;6.00;;
787;SDS011;16074;42.708;23.312;2023-03-25T11:28:36;6.70;;;6.10;;
787;SDS011;16074;42.708;23.312;2023-03-25T11:31:08;6.67;;;6.13;;
787;SDS011;16074;42.708;23.312;2023-03-25T11:33:39;7.20;;;6.70;;
787;SDS011;16074;42.708;23.312;2023-03-25T11:36:10;6.17;;;5.67;;
787;SDS011;16074;42.708;23.312;2023-03-25T11:38:40;6.50;;;6.00;;
787;SDS011;16074;42.708;23.312;2023-03-25T11:41:12;5.83;;;5.43;;
787;SDS011;16074;42.708;23.312;2023-03-25T11:43:42;5.93;;;5.53;;
787;SDS011;16074;42.708;23.312;2023-03-25T11:46:15;6.77;;;6.27;;
787;SDS011;16074;42.708;23.312;2023-03-25T11:48:47;6.47;;;5.87;;
787;SDS011;16074;42.708;23.312;2023-03-25T11:51:18;6.30;;;5.80;;
787;SDS011;16074;42.708;23.312;2023-03-25T11:53:49;6.10;;;5.47;;
787;SDS011;16074;42.708;23.312;2023-03-25T11:56:26;6.40;;;5.90;;
787;SDS011;16074;42.708;23.312;2023-03-25T11:59:01;6.37;;;5.77;;
787;SDS011;16074;42.708;23.312;2023-03-25T12:01:36;6.80;;;6.20;;
787;SDS011;16074;42.708;23.312;2023-03-25T12:04:11;6.03;;;5.63;;
787;SDS011;16074;42.708;23.312;2023-03-25T12:06:52;5.63;;;5.23;;
787;SDS011;16074;42.708;23.312;2023-03-25T12:09:23;6.00;;;5.50;;
787;SDS011;16074;42.708;23.312;2023-03-25T12:11:59;5.67;;;5.27;;
787;SDS011;16074;42.708;23.312;2023-03-25T12:14:43;5.47;;;4.97;;
787;SDS011;16074;42.708;23.312;2023-03-25T12:17:22;8.87;;;5.17;;
787;SDS011;16074;42.708;23.312;2023-03-25T12:20:02;5.87;;;5.37;;
787;SDS011;16074;42.708;23.312;2023-03-25T12:22:47;6.30;;;5.80;;
787;SDS011;16074;42.708;23.312;2023-03-25T12:25:25;6.10;;;5.70;;
787;SDS011;16074;42.708;23.312;2023-03-25T12:28:03;4.83;;;4.47;;
787;SDS011;16074;42.708;23.312;2023-03-25T12:30:53;4.87;;;4.57;;
787;SDS011;16074;42.708;23.312;2023-03-25T12:33:32;5.53;;;5.03;;
787;SDS011;16074;42.708;23.312;2023-03-25T12:36:14;6.37;;;5.83;;
787;SDS011;16074;42.708;23.312;2023-03-25T12:38:55;5.30;;;4.90;;
787;SDS011;16074;42.708;23.312;2023-03-25T12:41:36;6.20;;;5.70;;
787;SDS011;16074;42.708;23.312;2023-03-25T12:44:09;5.67;;;5.27;;
787;SDS011;16074;42.708;23.312;2023-03-25T12:46:57;5.37;;;5.07;;
787;SDS011;16074;42.708;23.312;2023-03-25T12:49:41;5.70;;;5.30;;
787;SDS011;16074;42.708;23.312;2023-03-25T12:52:23;5.40;;;5.00;;
787;SDS011;16074;42.708;23.312;2023-03-25T12:54:59;5.30;;;4.87;;
787;SDS011;16074;42.708;23.312;2023-03-25T12:57:40;5.90;;;5.50;;
787;SDS011;16074;42.708;23.312;2023-03-25T13:00:21;5.77;;;5.40;;
787;SDS011;16074;42.708;23.312;2023-03-25T13:05:57;6.53;;;5.53;;
787;SDS011;16074;42.708;23.312;2023-03-25T13:08:31;6.00;;;5.50;;
787;SDS011;16074;42.708;23.312;2023-03-25T13:11:05;5.33;;;5.03;;
787;SDS011;16074;42.708;23.312;2023-03-25T13:13:35;6.00;;;5.60;;
787;SDS011;16074;42.708;23.312;2023-03-25T13:16:07;6.07;;;5.57;;
787;SDS011;16074;42.708;23.312;2023-03-25T13:18:40;6.43;;;5.93;;
787;SDS011;16074;42.708;23.312;2023-03-25T13:21:14;5.47;;;5.07;;
787;SDS011;16074;42.708;23.312;2023-03-25T13:23:49;7.00;;;5.30;;
787;SDS011;16074;42.708;23.312;2023-03-25T13:26:21;6.40;;;5.80;;
787;SDS011;16074;42.708;23.312;2023-03-25T13:28:56;6.67;;;6.00;;
787;SDS011;16074;42.708;23.312;2023-03-25T13:31:30;6.20;;;5.70;;
787;SDS011;16074;42.708;23.312;2023-03-25T13:34:07;7.50;;;6.80;;
787;SDS011;16074;42.708;23.312;2023-03-25T13:36:48;9.60;;;5.80;;
787;SDS011;16074;42.708;23.312;2023-03-25T13:39:28;5.53;;;5.17;;
787;SDS011;16074;42.708;23.312;2023-03-25T13:42:02;5.50;;;5.00;;
787;SDS011;16074;42.708;23.312;2023-03-25T13:44:35;5.30;;;4.83;;
787;SDS011;16074;42.708;23.312;2023-03-25T13:47:08;6.27;;;5.80;;
787;SDS011;16074;42.708;23.312;2023-03-25T13:49:46;5.40;;;5.00;;
787;SDS011;16074;42.708;23.312;2023-03-25T13:52:18;5.60;;;5.20;;
787;SDS011;16074;42.708;23.312;2023-03-25T13:54:48;6.93;;;6.40;;
787;SDS011;16074;42.708;23.312;2023-03-25T13:57:30;6.27;;;5.87;;
787;SDS011;16074;42.708;23.312;2023-03-25T14:03:08;5.70;;;5.30;;
787;SDS011;16074;42.708;23.312;2023-03-25T14:05:59;7.63;;;6.10;;
787;SDS011;16074;42.708;23.312;2023-03-25T14:11:58;5.70;;;5.30;;
787;SDS011;16074;42.708;23.312;2023-03-25T14:14:33;5.47;;;5.07;;
787;SDS011;16074;42.708;23.312;2023-03-25T14:17:06;7.07;;;6.47;;
787;SDS011;16074;42.708;23.312;2023-03-25T14:19:35;6.73;;;6.23;;
787;SDS011;16074;42.708;23.312;2023-03-25T14:22:09;7.47;;;6.80;;
787;SDS011;16074;42.708;23.312;2023-03-25T14:24:44;9.70;;;8.70;;
787;SDS011;16074;42.708;23.312;2023-03-25T14:27:14;7.93;;;7.20;;
787;SDS011;16074;42.708;23.312;2023-03-25T14:29:46;7.77;;;7.17;;
787;SDS011;16074;42.708;23.312;2023-03-25T14:32:32;7.40;;;6.80;;
787;SDS011;16074;42.708;23.312;2023-03-25T14:41:16;8.55;;;7.43;;
787;SDS011;16074;42.708;23.312;2023-03-25T14:44:21;7.70;;;7.10;;
787;SDS011;16074;42.708;23.312;2023-03-25T14:47:01;8.50;;;7.63;;
787;SDS011;16074;42.708;23.312;2023-03-25T14:49:53;10.90;;;9.90;;
787;SDS011;16074;42.708;23.312;2023-03-25T14:52:28;8.23;;;7.53;;
787;SDS011;16074;42.708;23.312;2023-03-25T14:54:58;8.32;;;7.63;;
787;SDS011;16074;42.708;23.312;2023-03-25T14:57:38;8.02;;;7.32;;
787;SDS011;16074;42.708;23.312;2023-03-25T15:00:09;14.33;;;7.20;;
787;SDS011;16074;42.708;23.312;2023-03-25T15:02:49;6.63;;;6.13;;
787;SDS011;16074;42.708;23.312;2023-03-25T15:05:22;7.30;;;6.63;;
787;SDS011;16074;42.708;23.312;2023-03-25T15:07:53;6.77;;;6.07;;
787;SDS011;16074;42.708;23.312;2023-03-25T15:10:26;8.27;;;7.43;;
787;SDS011;16074;42.708;23.312;2023-03-25T15:13:01;9.40;;;7.97;;
787;SDS011;16074;42.708;23.312;2023-03-25T15:15:33;8.50;;;6.93;;
787;SDS011;16074;42.708;23.312;2023-03-25T15:24:46;8.07;;;7.37;;
787;SDS011;16074;42.708;23.312;2023-03-25T15:27:23;8.90;;;8.17;;
787;SDS011;16074;42.708;23.312;2023-03-25T15:30:03;8.37;;;7.57;;
787;SDS011;16074;42.708;23.312;2023-03-25T15:32:46;7.90;;;7.20;;
787;SDS011;16074;42.708;23.312;2023-03-25T15:35:32;10.60;;;9.20;;
787;SDS011;16074;42.708;23.312;2023-03-25T15:38:18;12.73;;;11.10;;
787;SDS011;16074;42.708;23.312;2023-03-25T15:41:15;11.60;;;10.60;;
787;SDS011;16074;42.708;23.312;2023-03-25T15:44:10;10.00;;;9.00;;
787;SDS011;16074;42.708;23.312;2023-03-25T15:47:06;8.07;;;7.23;;